Time;durP1;ratioP1;P1;durP2;ratioP2;P2;SDS_P1;SDS_P2;PMS_P1;PMS_P2;Temp;Humidity;BMP_temperature;BMP_pressure;BME280_temperature;BME280_humidity;BME280_pressure;Samples;Min_cycle;Max_cycle;Signal;HPM_P1;HPM_P2
2022/08/08 00:02:16;;;;;;;7.97;3.42;;;14.90;99.90;;;;;;5023020;28;20550;-90
2022/08/08 00:04:47;;;;;;;5.82;3.97;;;14.90;99.90;;;;;;5029005;28;20025;-90
2022/08/08 00:07:19;;;;;;;8.43;3.30;;;14.90;99.90;;;;;;5035636;28;20057;-89
2022/08/08 00:10:03;;;;;;;6.23;3.80;;;14.80;99.90;;;;;;5037462;28;20032;-90
2022/08/08 00:12:36;;;;;;;5.18;3.45;;;14.80;99.90;;;;;;5030419;28;20473;-89
2022/08/08 00:15:11;;;;;;;7.45;3.70;;;14.80;99.90;;;;;;5035371;28;20033;-89
2022/08/08 00:18:02;;;;;;;7.70;3.97;;;14.70;99.90;;;;;;5034384;28;20048;-89
2022/08/08 00:20:41;;;;;;;7.97;4.05;;;14.70;99.90;;;;;;5030857;28;20032;-89
2022/08/08 00:23:15;;;;;;;12.10;4.05;;;14.70;99.90;;;;;;5033308;28;20044;-89
2022/08/08 00:25:46;;;;;;;6.93;3.97;;;14.60;99.90;;;;;;5037342;28;20028;-90
2022/08/08 00:28:17;;;;;;;5.18;3.95;;;14.60;99.90;;;;;;5036687;28;20092;-89
2022/08/08 00:30:49;;;;;;;8.65;4.40;;;14.60;99.90;;;;;;5032855;28;20057;-89
2022/08/08 00:33:20;;;;;;;7.15;3.88;;;14.60;99.90;;;;;;5035387;28;20028;-89
2022/08/08 00:36:02;;;;;;;6.82;4.40;;;14.50;99.90;;;;;;5042282;28;20040;-90
2022/08/08 00:38:47;;;;;;;7.57;4.13;;;14.50;99.90;;;;;;5040173;28;20036;-89
2022/08/08 00:41:39;;;;;;;7.38;3.92;;;14.50;99.90;;;;;;5040658;28;20028;-89
2022/08/08 00:44:40;;;;;;;7.35;3.80;;;14.40;99.90;;;;;;5038848;28;20025;-90
2022/08/08 00:47:57;;;;;;;5.47;3.65;;;14.40;99.90;;;;;;5023531;28;20362;-90
2022/08/08 00:50:34;;;;;;;8.02;4.10;;;14.30;99.90;;;;;;5042289;28;20048;-91
2022/08/08 00:53:27;;;;;;;7.75;4.63;;;14.30;99.90;;;;;;5035016;28;20170;-90
2022/08/08 00:56:05;;;;;;;6.40;4.40;;;14.30;99.90;;;;;;5039624;28;20087;-89
2022/08/08 00:58:53;;;;;;;5.68;3.97;;;14.30;99.90;;;;;;5043596;28;20040;-89
2022/08/08 01:01:34;;;;;;;6.20;4.13;;;14.30;99.90;;;;;;5037100;28;20104;-89
2022/08/08 01:04:30;;;;;;;10.45;4.72;;;14.30;99.90;;;;;;5033885;28;20120;-89
2022/08/08 01:07:16;;;;;;;11.57;4.68;;;14.30;99.90;;;;;;5047771;28;20064;-89
2022/08/08 01:10:19;;;;;;;7.15;4.28;;;14.30;99.90;;;;;;5044484;28;20485;-89
2022/08/08 01:12:57;;;;;;;5.68;3.90;;;14.30;99.90;;;;;;5035992;28;20053;-89
2022/08/08 01:16:00;;;;;;;5.20;3.88;;;14.20;99.90;;;;;;5033760;28;20393;-89
2022/08/08 01:18:48;;;;;;;6.50;3.58;;;14.20;99.90;;;;;;5018431;28;20057;-89
2022/08/08 01:21:28;;;;;;;7.20;4.32;;;14.20;99.90;;;;;;5038594;28;20017;-89
2022/08/08 01:24:31;;;;;;;5.85;4.38;;;14.10;99.90;;;;;;5036913;28;20571;-89
2022/08/08 01:27:12;;;;;;;8.13;4.35;;;14.20;99.90;;;;;;5033593;28;20026;-89
2022/08/08 01:30:08;;;;;;;9.00;4.70;;;14.10;99.90;;;;;;5028558;28;20738;-89
2022/08/08 01:33:11;;;;;;;6.53;5.30;;;14.10;99.90;;;;;;5048203;28;20025;-89
2022/08/08 01:36:05;;;;;;;5.43;4.38;;;14.10;99.90;;;;;;5034650;28;20048;-89
2022/08/08 01:39:18;;;;;;;9.15;4.60;;;14.00;99.90;;;;;;5034720;28;20030;-89
2022/08/08 01:42:15;;;;;;;7.80;4.70;;;14.00;99.90;;;;;;4999009;28;20130;-90
2022/08/08 01:44:58;;;;;;;7.25;5.03;;;13.90;99.90;;;;;;5031188;28;20029;-90
2022/08/08 01:48:01;;;;;;;10.55;4.97;;;13.90;99.90;;;;;;5036409;28;20029;-91
2022/08/08 01:50:48;;;;;;;;;;;13.80;99.90;;;;;;5045299;28;20116;-90
2022/08/08 01:53:42;;;;;;;6.43;4.50;;;13.80;99.90;;;;;;5030240;28;19913;-90
2022/08/08 01:56:25;;;;;;;7.25;4.55;;;13.80;99.90;;;;;;5019253;28;20497;-90
2022/08/08 01:59:20;;;;;;;6.68;5.13;;;13.70;99.90;;;;;;5035260;28;20029;-90
2022/08/08 02:02:02;;;;;;;8.40;4.75;;;13.70;99.90;;;;;;5027942;28;20071;-90
2022/08/08 02:04:57;;;;;;;6.32;5.15;;;13.70;99.90;;;;;;5045705;28;20048;-90
2022/08/08 02:07:35;;;;;;;8.25;4.90;;;13.60;99.90;;;;;;5046346;28;20135;-90
2022/08/08 02:10:36;;;;;;;10.57;5.32;;;13.60;99.90;;;;;;5048278;28;20021;-91
2022/08/08 02:13:37;;;;;;;8.77;4.80;;;13.60;99.90;;;;;;5030083;28;20028;-89
2022/08/08 02:16:15;;;;;;;11.15;5.82;;;13.50;99.90;;;;;;5040346;28;20384;-91
2022/08/08 02:19:11;;;;;;;7.75;4.88;;;13.50;99.90;;;;;;5038134;28;20485;-91
2022/08/08 02:25:05;;;;;;;6.03;4.32;;;13.40;99.90;;;;;;5050018;28;20040;-90
2022/08/08 02:28:02;;;;;;;12.50;5.05;;;13.40;99.90;;;;;;5006580;28;20030;-90
2022/08/08 02:31:07;;;;;;;7.80;5.68;;;13.40;99.90;;;;;;5025605;28;20021;-91
2022/08/08 02:33:48;;;;;;;8.18;5.60;;;13.30;99.90;;;;;;5029112;28;20436;-90
2022/08/08 02:36:33;;;;;;;8.52;5.18;;;13.30;99.90;;;;;;5029202;28;20036;-90
2022/08/08 02:39:23;;;;;;;8.75;4.60;;;13.40;99.90;;;;;;5044387;28;20074;-90
2022/08/08 02:42:14;;;;;;;8.80;5.07;;;13.30;99.90;;;;;;5031231;28;20029;-90
2022/08/08 02:45:17;;;;;;;6.68;4.30;;;13.20;99.90;;;;;;5023162;28;20037;-90
2022/08/08 02:47:57;;;;;;;7.90;4.32;;;13.10;99.90;;;;;;5020403;28;20026;-89
2022/08/08 02:50:44;;;;;;;8.20;4.80;;;13.00;99.90;;;;;;5043992;28;20139;-89
2022/08/08 02:53:30;;;;;;;9.65;6.00;;;13.00;99.90;;;;;;5023869;28;20037;-90
2022/08/08 02:56:18;;;;;;;7.35;5.22;;;13.00;99.90;;;;;;5046640;28;20031;-89
2022/08/08 02:59:25;;;;;;;10.45;6.00;;;12.90;99.90;;;;;;5031759;28;20068;-89
2022/08/08 03:02:17;;;;;;;9.90;6.63;;;12.90;99.90;;;;;;4972652;28;20027;-88
2022/08/08 03:05:21;;;;;;;9.32;6.05;;;12.90;99.90;;;;;;5042389;28;20094;-89
2022/08/08 03:08:24;;;;;;;9.20;6.22;;;12.90;99.90;;;;;;5014919;28;20226;-89
2022/08/08 03:11:27;;;;;;;11.10;6.35;;;12.80;99.90;;;;;;5011494;28;20116;-89
2022/08/08 03:14:26;;;;;;;7.97;5.47;;;12.90;99.90;;;;;;5016382;28;20018;-89
2022/08/08 03:17:07;;;;;;;11.32;5.80;;;12.90;99.90;;;;;;5004670;28;20621;-89
2022/08/08 03:20:05;;;;;;;9.65;6.40;;;12.90;99.90;;;;;;5013201;28;20047;-89
2022/08/08 03:22:32;;;;;;;9.20;6.43;;;12.90;99.90;;;;;;5005562;28;20042;-89
2022/08/08 03:25:04;;;;;;;8.65;5.95;;;12.90;99.90;;;;;;5013292;28;20456;-88
2022/08/08 03:27:36;;;;;;;9.95;5.82;;;12.90;99.90;;;;;;5017483;28;20025;-89
2022/08/08 03:30:12;;;;;;;10.40;6.50;;;12.90;99.90;;;;;;5018768;28;20546;-89
2022/08/08 03:35:24;;;;;;;10.38;6.00;;;12.90;99.90;;;;;;5029399;28;20473;-89
2022/08/08 03:37:50;;;;;;;9.25;6.18;;;12.90;99.90;;;;;;5018647;28;20029;-88
2022/08/08 03:40:17;;;;;;;10.05;6.47;;;12.80;99.90;;;;;;5014619;28;20021;-89
2022/08/08 03:42:43;;;;;;;11.50;6.28;;;12.80;99.90;;;;;;5012824;28;20036;-88
2022/08/08 03:45:21;;;;;;;9.90;6.13;;;12.80;99.90;;;;;;5014913;28;20028;-89
2022/08/08 03:48:08;;;;;;;8.02;5.65;;;12.80;99.90;;;;;;5021924;28;20029;-89
2022/08/08 03:50:35;;;;;;;7.68;5.47;;;12.70;99.90;;;;;;5018833;28;20320;-89
2022/08/08 03:53:11;;;;;;;9.18;6.15;;;12.70;99.90;;;;;;5004534;28;20057;-89
2022/08/08 03:55:38;;;;;;;12.15;6.50;;;12.60;99.90;;;;;;5015868;28;20405;-89
2022/08/08 03:58:04;;;;;;;10.40;6.57;;;12.60;99.90;;;;;;5009312;28;20096;-89
2022/08/08 04:00:30;;;;;;;10.23;6.55;;;12.60;99.90;;;;;;5010854;28;20017;-90
2022/08/08 04:02:59;;;;;;;9.75;5.13;;;12.50;99.90;;;;;;5009872;28;20029;-88
2022/08/08 04:05:30;;;;;;;8.13;5.47;;;12.50;99.90;;;;;;5008300;28;20053;-88
2022/08/08 04:07:57;;;;;;;7.20;5.18;;;12.50;99.90;;;;;;5032792;28;20082;-87
2022/08/08 04:10:23;;;;;;;9.10;5.80;;;12.50;99.90;;;;;;5032237;28;20056;-88
2022/08/08 04:12:49;;;;;;;9.32;6.07;;;12.40;99.90;;;;;;5021767;28;20049;-88
2022/08/08 04:15:15;;;;;;;10.95;5.82;;;12.40;99.90;;;;;;5050701;28;20464;-88
2022/08/08 04:17:40;;;;;;;9.57;7.30;;;12.40;99.90;;;;;;5034373;28;20040;-88
2022/08/08 04:20:06;;;;;;;11.50;5.93;;;12.40;99.90;;;;;;5030848;28;20021;-88
2022/08/08 04:22:32;;;;;;;10.10;6.95;;;12.30;99.90;;;;;;5032798;28;20036;-87
2022/08/08 04:24:58;;;;;;;13.50;7.80;;;12.30;99.90;;;;;;5028622;28;20021;-88
2022/08/08 04:27:25;;;;;;;11.80;7.20;;;12.30;99.90;;;;;;5046206;28;20056;-87
2022/08/08 04:29:50;;;;;;;14.68;8.05;;;12.40;99.90;;;;;;5032512;28;20028;-87
2022/08/08 04:32:16;;;;;;;13.30;8.80;;;12.40;99.90;;;;;;5046747;28;20029;-88
2022/08/08 04:34:42;;;;;;;15.23;8.57;;;12.40;99.90;;;;;;5034233;28;20381;-88
2022/08/08 04:37:08;;;;;;;14.35;8.82;;;12.50;99.90;;;;;;5034451;28;20043;-88
2022/08/08 04:39:34;;;;;;;13.75;9.18;;;12.50;99.90;;;;;;5028978;28;20037;-84
2022/08/08 04:41:59;;;;;;;12.90;8.57;;;12.50;99.90;;;;;;5032690;28;20021;-84
2022/08/08 04:44:25;;;;;;;13.77;9.63;;;12.60;99.90;;;;;;5029391;28;24142;-84
2022/08/08 04:46:51;;;;;;;14.02;8.88;;;12.60;99.90;;;;;;5029187;28;20056;-84
2022/08/08 04:49:16;;;;;;;13.38;8.48;;;12.60;99.90;;;;;;5044179;28;20515;-85
2022/08/08 04:51:42;;;;;;;16.60;8.23;;;12.70;99.90;;;;;;5026833;28;20562;-85
2022/08/08 04:54:08;;;;;;;15.05;8.95;;;12.70;99.90;;;;;;5049805;28;20116;-85
2022/08/08 04:56:34;;;;;;;16.88;8.68;;;12.80;99.90;;;;;;5033999;28;20467;-84
2022/08/08 04:58:59;;;;;;;14.18;9.13;;;12.90;99.90;;;;;;5017139;28;20028;-86
2022/08/08 05:01:25;;;;;;;14.73;7.90;;;12.90;99.90;;;;;;5043623;28;20037;-86
2022/08/08 05:03:51;;;;;;;16.27;8.77;;;13.00;99.90;;;;;;5026560;28;20496;-86
2022/08/08 05:06:16;;;;;;;12.82;8.40;;;13.00;99.90;;;;;;5050968;28;20179;-86
2022/08/08 05:08:43;;;;;;;12.63;8.00;;;13.00;99.90;;;;;;5056973;28;20027;-85
2022/08/08 05:11:12;;;;;;;11.43;8.00;;;13.00;99.90;;;;;;5047465;28;20029;-85
2022/08/08 05:13:38;;;;;;;12.70;8.15;;;13.10;99.90;;;;;;5033519;28;20087;-85
2022/08/08 05:16:04;;;;;;;12.00;7.50;;;13.20;99.90;;;;;;5035865;28;20025;-86
2022/08/08 05:18:32;;;;;;;13.48;7.68;;;13.30;99.90;;;;;;5036525;28;20037;-86
2022/08/08 05:20:58;;;;;;;10.65;7.47;;;13.30;99.90;;;;;;5033896;28;20040;-85
2022/08/08 05:23:23;;;;;;;17.80;8.18;;;13.40;99.90;;;;;;5057782;28;20384;-85
2022/08/08 05:25:50;;;;;;;12.63;7.35;;;13.50;99.90;;;;;;5035997;28;20047;-85
2022/08/08 05:28:16;;;;;;;11.90;7.97;;;13.50;99.90;;;;;;5048078;28;20028;-85
2022/08/08 05:30:42;;;;;;;12.00;6.82;;;13.60;99.90;;;;;;5044493;28;20097;-84
2022/08/08 05:33:08;;;;;;;11.48;6.72;;;13.60;99.90;;;;;;5034396;28;20105;-85
2022/08/08 05:35:34;;;;;;;10.88;6.20;;;13.70;99.90;;;;;;5040996;28;20025;-85
2022/08/08 05:38:04;;;;;;;12.35;6.68;;;13.80;99.90;;;;;;5035743;28;20057;-85
2022/08/08 05:40:32;;;;;;;10.13;5.97;;;13.90;99.90;;;;;;5027876;28;20465;-85
2022/08/08 05:43:09;;;;;;;10.80;6.38;;;14.10;99.90;;;;;;5034874;28;20043;-85
2022/08/08 05:45:35;;;;;;;9.98;5.38;;;14.20;99.90;;;;;;5037087;28;20487;-85
2022/08/08 05:48:02;;;;;;;5.80;5.15;;;14.50;99.90;;;;;;5032442;28;20033;-85
2022/08/08 05:50:29;;;;;;;6.18;4.30;;;14.80;99.90;;;;;;5036356;28;20064;-85
2022/08/08 05:52:55;;;;;;;11.52;5.07;;;15.10;99.90;;;;;;5026417;28;20485;-88
2022/08/08 05:55:20;;;;;;;7.90;4.95;;;15.30;99.90;;;;;;5028437;28;20025;-89
2022/08/08 05:57:52;;;;;;;8.63;4.63;;;15.40;99.90;;;;;;5037091;28;20060;-88
2022/08/08 06:00:18;;;;;;;11.63;5.53;;;15.50;99.90;;;;;;5036726;28;20523;-88
2022/08/08 06:05:33;;;;;;;7.38;5.28;;;15.80;99.90;;;;;;5055442;28;20040;-89
2022/08/08 06:08:00;;;;;;;5.47;4.32;;;15.90;99.90;;;;;;5037612;28;20036;-88
2022/08/08 06:10:30;;;;;;;7.32;4.10;;;15.90;99.90;;;;;;5041149;28;20048;-89
2022/08/08 06:12:56;;;;;;;13.00;4.15;;;16.00;99.90;;;;;;5036298;28;20025;-88
2022/08/08 06:15:22;;;;;;;5.07;3.45;;;16.10;99.90;;;;;;5036516;28;20025;-88
2022/08/08 06:17:48;;;;;;;6.68;3.88;;;16.30;99.90;;;;;;5038479;28;20025;-88
2022/08/08 06:20:14;;;;;;;8.20;3.72;;;16.30;99.90;;;;;;5041021;28;20481;-89
2022/08/08 06:22:40;;;;;;;6.28;3.88;;;16.40;99.90;;;;;;5036382;28;20029;-88
2022/08/08 06:25:07;;;;;;;5.55;3.17;;;16.50;99.90;;;;;;5036723;28;20021;-88
2022/08/08 06:27:43;;;;;;;6.40;3.47;;;16.60;99.90;;;;;;5036775;28;20054;-88
2022/08/08 06:30:13;;;;;;;5.75;3.00;;;16.70;99.90;;;;;;5037223;28;20485;-89
2022/08/08 06:32:44;;;;;;;4.03;2.80;;;16.80;99.90;;;;;;5036282;28;20115;-89
2022/08/08 06:35:12;;;;;;;7.68;2.65;;;16.90;99.90;;;;;;5045594;28;20032;-88
2022/08/08 06:38:03;;;;;;;4.93;2.58;;;16.90;99.90;;;;;;5054450;28;20059;-89
2022/08/08 06:40:30;;;;;;;4.57;2.20;;;17.00;99.90;;;;;;5036312;28;20053;-88
2022/08/08 06:43:07;;;;;;;8.98;2.53;;;17.20;99.90;;;;;;5049023;28;20120;-89
2022/08/08 06:45:35;;;;;;;6.25;2.17;;;17.30;99.90;;;;;;5051366;28;20029;-89
2022/08/08 06:48:00;;;;;;;3.75;1.88;;;17.40;99.90;;;;;;5036730;28;20029;-88
2022/08/08 06:50:27;;;;;;;4.63;1.65;;;17.40;99.90;;;;;;5036058;28;20032;-88
2022/08/08 06:52:52;;;;;;;5.72;1.60;;;17.60;99.90;;;;;;5035344;28;20488;-88
2022/08/08 06:55:20;;;;;;;4.30;1.35;;;17.70;99.90;;;;;;5039343;28;20025;-87
2022/08/08 06:57:46;;;;;;;3.33;1.20;;;17.90;99.90;;;;;;5055613;28;20033;-89
2022/08/08 07:00:13;;;;;;;6.68;1.52;;;18.00;99.90;;;;;;5048261;28;20032;-88
2022/08/08 07:02:44;;;;;;;5.63;1.20;;;18.10;99.90;;;;;;5053729;28;20365;-89
2022/08/08 07:05:14;;;;;;;4.75;1.38;;;18.20;99.90;;;;;;5036069;28;20119;-88
2022/08/08 07:07:52;;;;;;;3.65;1.13;;;18.30;99.90;;;;;;5035887;28;20484;-88
2022/08/08 07:10:20;;;;;;;4.72;0.88;;;18.40;99.90;;;;;;5032478;28;20044;-89
2022/08/08 07:12:54;;;;;;;5.97;0.70;;;18.50;99.90;;;;;;5035753;28;20021;-88
2022/08/08 07:15:35;;;;;;;4.18;0.90;;;18.60;99.90;;;;;;5053296;28;20079;-89
2022/08/08 07:18:04;;;;;;;4.53;0.80;;;18.70;99.90;;;;;;5036206;28;20037;-89
2022/08/08 07:20:34;;;;;;;4.80;0.98;;;18.80;99.90;;;;;;5034632;28;20091;-89
2022/08/08 07:23:28;;;;;;;5.40;0.98;;;18.70;99.90;;;;;;5053593;28;20033;-89
2022/08/08 07:25:58;;;;;;;3.22;0.63;;;18.80;99.90;;;;;;5035367;28;20025;-88
2022/08/08 07:28:24;;;;;;;1.48;0.50;;;19.00;99.90;;;;;;5053380;28;20040;-88
2022/08/08 07:30:50;;;;;;;6.32;0.60;;;19.10;99.90;;;;;;5029910;28;20022;-89
2022/08/08 07:33:24;;;;;;;3.42;0.60;;;19.20;99.90;;;;;;5033876;28;20032;-88
2022/08/08 07:35:51;;;;;;;3.15;0.60;;;19.30;99.90;;;;;;5054760;28;20477;-88
2022/08/08 07:38:18;;;;;;;3.53;0.60;;;19.40;99.90;;;;;;5047150;28;20568;-88
2022/08/08 07:40:47;;;;;;;3.35;0.60;;;19.40;99.90;;;;;;5051709;28;20025;-89
2022/08/08 07:43:13;;;;;;;2.13;0.60;;;19.40;99.90;;;;;;5035393;28;20056;-89
2022/08/08 07:45:41;;;;;;;5.03;1.08;;;19.50;99.90;;;;;;5035146;28;20389;-89
2022/08/08 07:48:06;;;;;;;6.57;0.60;;;19.60;99.90;;;;;;5039109;28;20443;-89
2022/08/08 07:50:33;;;;;;;3.10;0.50;;;19.60;99.90;;;;;;5035282;28;20116;-88
2022/08/08 07:53:02;;;;;;;6.10;0.70;;;19.60;99.90;;;;;;5046273;28;20028;-89
2022/08/08 07:55:30;;;;;;;3.00;0.77;;;19.70;99.90;;;;;;5044314;28;20094;-87
2022/08/08 07:58:17;;;;;;;1.67;0.43;;;19.80;99.90;;;;;;5052108;28;20508;-88
2022/08/08 08:00:51;;;;;;;2.58;0.50;;;19.90;99.90;;;;;;5052166;28;20024;-88
2022/08/08 08:03:29;;;;;;;4.43;0.75;;;20.00;99.90;;;;;;5066118;28;20024;-87
2022/08/08 08:05:56;;;;;;;1.80;0.30;;;20.10;99.90;;;;;;5034489;28;20129;-88
2022/08/08 08:08:38;;;;;;;4.68;0.77;;;20.10;99.90;;;;;;5059452;28;20028;-88
2022/08/08 08:11:10;;;;;;;3.70;0.60;;;20.20;99.90;;;;;;5039670;28;20078;-88
2022/08/08 08:14:04;;;;;;;3.38;0.45;;;20.20;99.90;;;;;;5034958;28;20036;-87
2022/08/08 08:16:34;;;;;;;7.32;0.45;;;20.30;99.90;;;;;;5034119;28;20056;-87
2022/08/08 08:19:04;;;;;;;2.58;0.40;;;20.40;99.70;;;;;;5035020;28;20021;-88
2022/08/08 08:21:45;;;;;;;3.10;0.40;;;20.40;99.50;;;;;;5033970;28;20550;-87
2022/08/08 08:24:11;;;;;;;4.97;0.60;;;20.50;99.20;;;;;;5039837;28;20075;-86
2022/08/08 08:26:37;;;;;;;4.07;0.70;;;20.50;98.90;;;;;;5053937;28;20527;-87
2022/08/08 08:29:03;;;;;;;4.85;0.65;;;20.60;98.80;;;;;;5047852;28;20082;-88
2022/08/08 08:31:29;;;;;;;2.50;0.40;;;20.50;98.60;;;;;;5034039;28;20057;-87
2022/08/08 08:33:56;;;;;;;2.03;0.38;;;20.60;98.40;;;;;;5034398;28;20102;-87
2022/08/08 08:36:22;;;;;;;1.58;0.73;;;20.60;98.30;;;;;;5041248;28;20033;-87
2022/08/08 08:38:48;;;;;;;3.80;0.40;;;20.80;98.00;;;;;;5058186;28;20484;-88
2022/08/08 08:41:15;;;;;;;0.98;0.32;;;20.90;97.60;;;;;;5039132;28;20035;-88
2022/08/08 08:43:42;;;;;;;3.15;0.30;;;20.90;97.40;;;;;;5037946;28;20116;-88
2022/08/08 08:46:10;;;;;;;3.58;0.38;;;21.00;96.90;;;;;;5038103;28;20027;-88
2022/08/08 08:48:37;;;;;;;2.13;0.38;;;21.10;96.60;;;;;;5053706;28;20036;-88
2022/08/08 08:51:05;;;;;;;3.53;0.50;;;21.20;96.50;;;;;;5040978;28;20029;-88
2022/08/08 08:53:36;;;;;;;3.67;0.40;;;21.20;96.20;;;;;;5039655;28;20061;-87
2022/08/08 08:56:02;;;;;;;4.18;0.30;;;21.20;95.70;;;;;;5058387;28;20029;-87
2022/08/08 08:58:44;;;;;;;1.15;0.30;;;21.30;95.60;;;;;;5040749;28;20060;-86
2022/08/08 09:01:11;;;;;;;1.50;0.30;;;21.30;95.50;;;;;;5038094;28;20116;-87
2022/08/08 09:03:49;;;;;;;2.58;0.50;;;21.40;95.20;;;;;;5037873;28;20035;-87
2022/08/08 09:06:27;;;;;;;3.92;0.30;;;21.50;94.90;;;;;;5034539;28;20045;-88
2022/08/08 09:09:02;;;;;;;2.60;0.30;;;21.50;94.70;;;;;;5037627;28;20020;-87
2022/08/08 09:11:33;;;;;;;2.10;0.30;;;21.50;94.60;;;;;;5038134;28;20108;-87
2022/08/08 09:14:00;;;;;;;1.37;0.30;;;21.70;94.20;;;;;;5038809;28;20037;-86
2022/08/08 09:16:28;;;;;;;2.97;0.40;;;21.90;94.00;;;;;;5038183;28;20090;-87
2022/08/08 09:18:54;;;;;;;4.80;0.32;;;22.00;92.90;;;;;;5036598;28;20115;-87
2022/08/08 09:21:20;;;;;;;3.30;0.30;;;22.00;92.80;;;;;;5037911;28;20067;-87
2022/08/08 09:23:47;;;;;;;1.50;0.30;;;22.10;92.90;;;;;;5038103;28;20599;-87
2022/08/08 09:26:25;;;;;;;1.80;0.20;;;22.30;92.80;;;;;;5038106;28;20056;-87
2022/08/08 09:28:53;;;;;;;1.35;0.20;;;22.50;92.40;;;;;;5036613;28;20063;-86
2022/08/08 09:31:37;;;;;;;1.17;0.20;;;22.60;91.70;;;;;;5055651;28;20029;-86
2022/08/08 09:34:04;;;;;;;3.53;0.50;;;22.80;91.30;;;;;;5029641;28;20060;-87
2022/08/08 09:36:34;;;;;;;1.42;0.20;;;22.80;91.10;;;;;;5042056;28;20033;-87
2022/08/08 09:39:02;;;;;;;1.58;0.20;;;22.80;90.70;;;;;;5055062;28;20024;-87
2022/08/08 09:41:41;;;;;;;2.75;0.30;;;22.60;90.30;;;;;;5054312;28;20040;-87
2022/08/08 09:44:45;;;;;;;0.90;0.20;;;22.40;90.20;;;;;;5037458;28;20043;-87
2022/08/08 09:47:14;;;;;;;4.03;0.30;;;22.40;90.50;;;;;;5015678;28;20444;-87
2022/08/08 09:49:42;;;;;;;1.55;0.22;;;22.60;90.30;;;;;;5035411;28;20052;-87
2022/08/08 09:52:08;;;;;;;3.15;0.30;;;23.00;89.90;;;;;;5038901;28;20036;-87
2022/08/08 09:54:41;;;;;;;1.67;0.20;;;23.30;89.20;;;;;;5045617;28;20029;-88
2022/08/08 09:57:09;;;;;;;2.35;0.38;;;23.60;88.50;;;;;;5037026;28;20048;-88
2022/08/08 09:59:38;;;;;;;2.75;0.32;;;23.90;87.20;;;;;;5065709;28;20044;-88
2022/08/08 10:02:05;;;;;;;2.20;0.20;;;24.00;85.70;;;;;;5063998;28;20044;-88
2022/08/08 10:04:34;;;;;;;2.35;0.43;;;23.90;85.10;;;;;;5059326;28;20381;-87
2022/08/08 10:07:01;;;;;;;4.00;0.28;;;23.80;84.60;;;;;;5036552;28;20084;-88
2022/08/08 10:09:32;;;;;;;4.32;0.30;;;23.70;84.50;;;;;;5037275;28;20789;-87
2022/08/08 10:12:00;;;;;;;2.78;0.40;;;23.60;84.60;;;;;;5037337;28;20032;-87
2022/08/08 10:14:37;;;;;;;1.48;0.10;;;23.50;84.90;;;;;;5033524;28;20021;-85
2022/08/08 10:17:08;;;;;;;2.40;0.22;;;23.60;84.50;;;;;;5030722;28;20037;-87
2022/08/08 10:19:36;;;;;;;2.03;0.20;;;23.70;83.50;;;;;;5054349;28;20037;-87
2022/08/08 10:22:04;;;;;;;1.00;0.25;;;23.80;82.80;;;;;;5036719;28;20021;-87
2022/08/08 10:24:31;;;;;;;1.00;0.10;;;23.80;81.20;;;;;;5029283;28;20221;-87
2022/08/08 10:27:02;;;;;;;1.88;0.20;;;23.80;80.70;;;;;;5029615;28;20031;-87
2022/08/08 10:29:51;;;;;;;1.45;0.20;;;23.90;79.50;;;;;;5036310;28;20055;-87
2022/08/08 10:32:31;;;;;;;1.70;0.30;;;24.00;78.70;;;;;;5036734;28;20056;-88
2022/08/08 10:34:58;;;;;;;0.60;0.13;;;24.00;78.10;;;;;;5036208;28;20051;-87
2022/08/08 10:37:30;;;;;;;0.75;0.20;;;24.20;78.30;;;;;;5043325;28;20040;-87
2022/08/08 10:39:56;;;;;;;;;;;24.40;77.50;;;;;;5026151;28;20036;-87
2022/08/08 10:42:30;;;;;;;3.47;0.30;;;24.60;77.80;;;;;;5042665;28;19905;-89
2022/08/08 10:45:04;;;;;;;2.55;0.20;;;24.80;76.00;;;;;;5042071;28;20031;-88
2022/08/08 10:47:30;;;;;;;0.80;0.13;;;25.10;74.80;;;;;;5036237;28;20033;-88
2022/08/08 10:49:58;;;;;;;1.38;0.22;;;25.30;74.50;;;;;;5041730;28;20025;-88
2022/08/08 10:52:33;;;;;;;1.35;0.13;;;25.40;72.60;;;;;;5056166;28;20561;-88
2022/08/08 10:55:12;;;;;;;0.50;0.10;;;25.40;72.50;;;;;;5054517;28;20453;-89
2022/08/08 10:57:42;;;;;;;1.65;0.38;;;25.50;71.90;;;;;;5049385;28;20028;-88
2022/08/08 11:00:11;;;;;;;0.88;0.10;;;25.30;71.40;;;;;;5054064;28;20059;-88
2022/08/08 11:02:37;;;;;;;2.35;0.10;;;25.10;71.50;;;;;;5035279;28;20029;-88
2022/08/08 11:05:12;;;;;;;2.22;0.20;;;24.90;71.70;;;;;;5035691;28;20021;-89
2022/08/08 11:07:40;;;;;;;1.65;0.20;;;24.90;71.90;;;;;;5031778;28;20094;-88
2022/08/08 11:10:11;;;;;;;5.03;0.20;;;24.80;71.90;;;;;;5035505;28;20419;-88
2022/08/08 11:12:53;;;;;;;2.67;0.20;;;24.70;71.90;;;;;;5035372;28;20060;-89
2022/08/08 11:15:21;;;;;;;2.40;0.40;;;24.70;72.10;;;;;;5024121;28;20284;-89
2022/08/08 11:17:48;;;;;;;1.17;0.10;;;24.80;71.20;;;;;;5022935;28;20110;-88
2022/08/08 11:20:16;;;;;;;11.88;0.38;;;24.90;71.00;;;;;;5026970;28;20017;-87
2022/08/08 11:22:41;;;;;;;1.60;0.25;;;25.10;71.20;;;;;;5026245;28;20390;-88
2022/08/08 11:25:10;;;;;;;1.08;0.20;;;25.20;69.60;;;;;;5014923;28;20032;-88
2022/08/08 11:27:37;;;;;;;1.70;0.20;;;25.20;69.90;;;;;;5012173;28;20478;-88
2022/08/08 11:30:06;;;;;;;1.70;0.25;;;25.10;69.90;;;;;;5015808;28;20456;-88
2022/08/08 11:32:38;;;;;;;1.55;0.28;;;25.10;70.50;;;;;;5022838;28;20061;-88
2022/08/08 11:35:12;;;;;;;0.95;0.20;;;25.30;70.00;;;;;;5021925;28;20025;-88
2022/08/08 11:37:40;;;;;;;2.92;0.20;;;25.30;69.20;;;;;;5014572;28;20033;-88
2022/08/08 11:40:08;;;;;;;4.40;0.43;;;25.20;69.20;;;;;;5035112;28;20040;-89
2022/08/08 11:42:34;;;;;;;1.95;0.20;;;25.10;68.90;;;;;;5029653;28;20493;-89
2022/08/08 11:45:01;;;;;;;2.30;0.20;;;25.00;69.10;;;;;;5015472;28;20025;-88
2022/08/08 11:47:27;;;;;;;1.80;0.35;;;25.00;69.40;;;;;;5031361;28;20037;-88
2022/08/08 11:49:56;;;;;;;1.58;0.20;;;25.10;69.20;;;;;;5034876;28;20052;-89
2022/08/08 11:52:23;;;;;;;1.52;0.20;;;25.20;69.20;;;;;;5034151;28;20025;-88
2022/08/08 11:54:49;;;;;;;1.23;0.40;;;25.30;68.50;;;;;;5021529;28;20039;-89
2022/08/08 11:57:27;;;;;;;0.98;0.20;;;25.30;68.60;;;;;;5026151;28;20028;-89
2022/08/08 12:00:03;;;;;;;2.28;0.15;;;25.40;68.20;;;;;;5034287;28;20033;-89
2022/08/08 12:02:30;;;;;;;0.82;0.20;;;25.40;68.20;;;;;;5031089;28;20021;-89
2022/08/08 12:05:05;;;;;;;0.80;0.20;;;25.70;67.60;;;;;;5013604;28;20025;-88
2022/08/08 12:07:42;;;;;;;4.18;0.22;;;25.90;66.30;;;;;;5072319;28;20198;-88
2022/08/08 12:10:13;;;;;;;1.02;0.20;;;26.10;66.20;;;;;;5051712;28;20016;-87
2022/08/08 12:12:43;;;;;;;1.95;0.20;;;26.30;65.90;;;;;;5050206;28;20365;-87
2022/08/08 12:15:09;;;;;;;1.52;0.30;;;26.50;65.60;;;;;;5033622;28;20028;-88
2022/08/08 12:17:37;;;;;;;1.20;0.30;;;26.60;65.30;;;;;;5051639;28;20384;-87
2022/08/08 12:20:05;;;;;;;2.38;0.20;;;26.60;65.00;;;;;;5054693;28;20381;-87
2022/08/08 12:22:32;;;;;;;3.13;0.30;;;26.50;65.10;;;;;;5034214;28;20032;-86
2022/08/08 12:24:59;;;;;;;1.40;0.20;;;26.30;65.40;;;;;;5052003;28;20100;-87
2022/08/08 12:27:35;;;;;;;2.58;0.40;;;26.20;65.80;;;;;;5041962;28;20128;-87
2022/08/08 12:30:01;;;;;;;2.25;0.20;;;26.30;65.70;;;;;;5034861;28;20021;-86
2022/08/08 12:32:27;;;;;;;2.67;0.30;;;26.30;65.10;;;;;;5035143;28;20694;-86
2022/08/08 12:34:55;;;;;;;1.15;0.30;;;26.40;65.00;;;;;;5052461;28;20100;-87
2022/08/08 12:37:25;;;;;;;1.20;0.40;;;26.40;65.10;;;;;;5051073;28;20448;-86
2022/08/08 12:39:51;;;;;;;2.97;0.20;;;26.40;64.80;;;;;;5036390;28;20052;-86
2022/08/08 12:42:16;;;;;;;1.27;0.20;;;26.40;65.20;;;;;;5032769;28;20029;-86
2022/08/08 12:44:44;;;;;;;3.08;0.30;;;26.40;64.60;;;;;;5034711;28;20024;-86
2022/08/08 12:47:10;;;;;;;1.10;0.20;;;26.30;64.40;;;;;;5049038;28;20035;-88
2022/08/08 12:49:37;;;;;;;1.02;0.20;;;26.20;64.60;;;;;;5043430;28;20032;-87
2022/08/08 12:52:03;;;;;;;1.05;0.20;;;26.30;65.90;;;;;;5047277;28;20032;-88
2022/08/08 12:54:35;;;;;;;1.30;0.20;;;26.40;64.00;;;;;;5034570;28;20056;-88
2022/08/08 12:57:20;;;;;;;1.05;0.20;;;26.20;64.10;;;;;;5034294;28;20033;-88
2022/08/08 12:59:51;;;;;;;2.47;0.25;;;26.10;64.50;;;;;;5033240;28;20078;-86
2022/08/08 13:02:32;;;;;;;1.65;0.20;;;26.10;64.90;;;;;;5035299;28;20028;-87
2022/08/08 13:05:00;;;;;;;1.30;0.30;;;26.30;64.50;;;;;;5050707;28;20057;-87
2022/08/08 13:07:34;;;;;;;1.50;0.30;;;26.50;64.10;;;;;;5052222;28;20068;-87
2022/08/08 13:10:02;;;;;;;1.77;0.30;;;26.80;64.20;;;;;;5049468;28;20049;-87
2022/08/08 13:12:33;;;;;;;1.85;0.30;;;26.90;63.60;;;;;;5043085;28;20056;-87
2022/08/08 13:15:03;;;;;;;3.67;0.40;;;26.80;63.40;;;;;;5044802;28;20083;-87
2022/08/08 13:17:30;;;;;;;5.32;0.30;;;26.70;63.60;;;;;;5034228;28;20128;-87
2022/08/08 13:19:56;;;;;;;2.60;0.22;;;26.60;64.00;;;;;;5050838;28;20044;-90
2022/08/08 13:22:22;;;;;;;1.65;0.20;;;26.70;63.20;;;;;;5034790;28;20029;-87
2022/08/08 13:24:49;;;;;;;3.17;0.20;;;26.60;62.60;;;;;;5055586;28;20025;-86
2022/08/08 13:27:15;;;;;;;0.63;0.10;;;26.40;62.80;;;;;;5038209;28;20060;-87
2022/08/08 13:29:57;;;;;;;0.90;0.10;;;26.30;62.60;;;;;;5037664;28;20116;-88